createdAt,value
2022-11-04T00:02:10.498Z,1.37
2022-11-04T00:04:38.636Z,1.30
2022-11-04T00:07:28.250Z,1.47
2022-11-04T00:09:56.314Z,0.87
2022-11-04T00:12:26.484Z,0.90
2022-11-04T00:15:14.727Z,1.30
2022-11-04T00:17:41.749Z,1.40
2022-11-04T00:20:28.706Z,1.67
2022-11-04T00:23:15.466Z,1.53
2022-11-04T00:26:01.149Z,1.03
2022-11-04T00:28:44.235Z,1.63
2022-11-04T00:31:30.508Z,1.77
2022-11-04T00:34:00.264Z,0.90
2022-11-04T00:36:28.466Z,0.70
2022-11-04T00:38:58.280Z,0.90
2022-11-04T00:41:30.153Z,1.10
2022-11-04T00:44:00.733Z,1.20
2022-11-04T00:46:31.840Z,1.00
2022-11-04T00:49:00.725Z,1.30
2022-11-04T00:51:29.120Z,1.33
2022-11-04T00:53:59.219Z,1.20
2022-11-04T00:56:27.368Z,1.27
2022-11-04T00:58:55.463Z,1.30
2022-11-04T01:01:23.582Z,1.07
2022-11-04T01:03:54.638Z,1.43
2022-11-04T01:06:25.219Z,1.07
2022-11-04T01:08:59.360Z,1.40
2022-11-04T01:11:30.628Z,1.27
2022-11-04T01:13:59.754Z,2.23
2022-11-04T01:16:29.110Z,1.40
2022-11-04T01:18:57.914Z,1.27
2022-11-04T01:21:26.224Z,1.03
2022-11-04T01:23:54.209Z,0.87
2022-11-04T01:26:26.311Z,0.87
2022-11-04T01:28:57.119Z,1.00
2022-11-04T01:31:28.289Z,1.13
2022-11-04T01:33:57.501Z,1.10
2022-11-04T01:36:27.771Z,1.43
2022-11-04T01:38:57.448Z,1.00
2022-11-04T01:41:30.256Z,1.33
2022-11-04T01:44:02.142Z,1.30
2022-11-04T01:46:38.784Z,1.10
2022-11-04T01:49:26.264Z,1.40
2022-11-04T01:52:01.945Z,1.20
2022-11-04T01:54:32.122Z,1.40
2022-11-04T01:57:07.010Z,1.17
2022-11-04T01:59:40.633Z,1.00
2022-11-04T02:02:09.407Z,1.50
2022-11-04T02:04:40.202Z,1.43
2022-11-04T02:07:12.153Z,1.07
2022-11-04T02:09:42.756Z,0.70
2022-11-04T02:12:30.168Z,1.20
2022-11-04T02:15:00.156Z,0.90
2022-11-04T02:17:58.299Z,0.93
2022-11-04T02:20:41.457Z,1.20
2022-11-04T02:23:42.477Z,0.83
2022-11-04T02:27:01.422Z,1.00
2022-11-04T02:29:49.358Z,1.40
2022-11-04T02:32:28.305Z,0.90
2022-11-04T02:35:06.811Z,1.17
2022-11-04T02:37:47.970Z,1.20
2022-11-04T02:40:28.701Z,1.13
2022-11-04T02:43:02.626Z,1.33
2022-11-04T02:45:42.737Z,0.77
2022-11-04T02:48:28.342Z,0.97
2022-11-04T02:51:05.332Z,1.80
2022-11-04T02:53:45.404Z,1.10
2022-11-04T02:56:18.863Z,1.63
2022-11-04T02:58:55.182Z,1.23
2022-11-04T03:01:30.583Z,0.50
2022-11-04T03:04:07.146Z,1.97
2022-11-04T03:06:38.130Z,0.87
2022-11-04T03:09:07.254Z,1.27
2022-11-04T03:11:38.867Z,0.77
2022-11-04T03:14:12.905Z,0.90
2022-11-04T03:16:48.227Z,1.10
2022-11-04T03:19:27.438Z,1.00
2022-11-04T03:22:02.116Z,0.60
2022-11-04T03:24:31.552Z,0.93
2022-11-04T03:27:06.571Z,1.47
2022-11-04T03:29:40.833Z,0.80
2022-11-04T03:32:23.848Z,1.00
2022-11-04T03:34:52.846Z,0.70
2022-11-04T03:37:21.060Z,0.70
2022-11-04T03:39:49.240Z,1.20
2022-11-04T03:42:23.276Z,1.40
2022-11-04T03:44:54.776Z,1.30
2022-11-04T03:47:27.983Z,0.90
2022-11-04T03:50:03.604Z,0.93
2022-11-04T03:52:31.983Z,1.00
2022-11-04T03:55:00.087Z,1.70
2022-11-04T03:57:53.757Z,1.40
2022-11-04T04:00:24.496Z,0.73
2022-11-04T04:03:08.755Z,1.33
2022-11-04T04:05:48.882Z,1.30
2022-11-04T04:08:34.499Z,1.00
2022-11-04T04:11:13.632Z,1.13
2022-11-04T04:13:50.964Z,0.80
2022-11-04T04:16:28.927Z,1.10
2022-11-04T04:19:04.352Z,1.40
2022-11-04T04:21:43.727Z,1.10
2022-11-04T04:24:36.353Z,0.87
2022-11-04T04:27:22.753Z,1.27
2022-11-04T04:29:54.646Z,1.20
2022-11-04T04:32:27.530Z,1.47
2022-11-04T04:35:17.546Z,1.53
2022-11-04T04:37:47.525Z,1.20
2022-11-04T04:40:41.077Z,1.33
2022-11-04T04:43:36.359Z,0.73
2022-11-04T04:46:04.599Z,1.50
2022-11-04T04:48:32.822Z,0.97
2022-11-04T04:51:02.953Z,1.23
2022-11-04T04:53:30.931Z,1.47
2022-11-04T04:55:59.141Z,1.43
2022-11-04T04:58:27.201Z,1.20
2022-11-04T05:00:55.255Z,1.20
2022-11-04T05:03:25.458Z,1.23
2022-11-04T05:05:55.001Z,1.20
2022-11-04T05:08:27.297Z,1.73
2022-11-04T05:10:55.316Z,2.13
2022-11-04T05:13:26.918Z,2.63
2022-11-04T05:15:55.271Z,1.33
2022-11-04T05:18:26.122Z,1.20
2022-11-04T05:20:54.330Z,1.70
2022-11-04T05:23:22.989Z,2.93
2022-11-04T05:25:53.155Z,1.37
2022-11-04T05:28:21.340Z,1.20
2022-11-04T05:30:49.563Z,1.33
2022-11-04T05:33:17.866Z,1.50
2022-11-04T05:35:46.029Z,2.13
2022-11-04T05:38:17.058Z,2.17
2022-11-04T05:40:45.062Z,1.80
2022-11-04T05:43:14.764Z,3.10
2022-11-04T05:45:42.839Z,1.60
2022-11-04T05:48:10.845Z,1.33
2022-11-04T05:50:38.875Z,1.77
2022-11-04T05:53:07.126Z,1.57
2022-11-04T05:55:35.383Z,1.00
2022-11-04T05:58:03.461Z,1.93
2022-11-04T06:00:32.834Z,1.60
2022-11-04T06:03:00.979Z,2.30
2022-11-04T06:05:30.031Z,1.30
2022-11-04T06:08:00.880Z,1.67
2022-11-04T06:10:29.362Z,1.10
2022-11-04T06:12:57.612Z,1.80
2022-11-04T06:15:25.832Z,1.20
2022-11-04T06:17:55.363Z,1.17
2022-11-04T06:20:23.436Z,1.57
2022-11-04T06:22:51.619Z,1.90
2022-11-04T06:25:19.922Z,1.50
2022-11-04T06:27:48.698Z,1.40
2022-11-04T06:30:17.514Z,1.27
2022-11-04T06:32:45.625Z,1.57
2022-11-04T06:35:14.970Z,1.37
2022-11-04T06:37:43.061Z,1.40
2022-11-04T06:40:12.398Z,1.30
2022-11-04T06:42:42.856Z,1.50
2022-11-04T06:45:12.835Z,1.90
2022-11-04T06:47:41.034Z,1.43
2022-11-04T06:50:10.064Z,1.47
2022-11-04T06:52:42.352Z,1.30
2022-11-04T06:55:11.849Z,2.07
2022-11-04T06:57:39.978Z,1.93
2022-11-04T07:00:09.834Z,1.73
2022-11-04T07:02:38.952Z,1.70
2022-11-04T07:05:08.074Z,1.87
2022-11-04T07:07:36.301Z,1.77
2022-11-04T07:10:06.908Z,1.53
2022-11-04T07:12:36.203Z,1.57
2022-11-04T07:15:05.093Z,2.00
2022-11-04T07:17:33.168Z,1.37
2022-11-04T07:20:01.343Z,1.10
2022-11-04T07:22:29.359Z,2.13
2022-11-04T07:24:57.409Z,2.07
2022-11-04T07:27:26.778Z,1.63
2022-11-04T07:29:54.783Z,1.77
2022-11-04T07:32:22.810Z,1.53
2022-11-04T07:34:50.815Z,2.07
2022-11-04T07:37:18.891Z,1.70
2022-11-04T07:39:46.911Z,1.47
2022-11-04T07:42:14.915Z,1.50
2022-11-04T07:44:44.235Z,2.03
2022-11-04T07:47:12.273Z,1.37
2022-11-04T07:49:40.284Z,2.43
2022-11-04T07:52:08.247Z,2.37
2022-11-04T07:54:36.358Z,1.50
2022-11-04T07:57:04.530Z,1.73
2022-11-04T07:59:32.519Z,1.70
2022-11-04T08:02:02.144Z,1.90
2022-11-04T08:04:30.488Z,1.53
2022-11-04T08:06:58.552Z,1.43
2022-11-04T08:09:26.886Z,1.20
2022-11-04T08:11:54.944Z,1.60
2022-11-04T08:14:22.936Z,2.07
2022-11-04T08:16:52.245Z,1.37
2022-11-04T08:19:21.584Z,1.63
2022-11-04T08:21:49.588Z,2.00
2022-11-04T08:24:17.650Z,1.63
2022-11-04T08:26:46.287Z,2.27
2022-11-04T08:29:14.722Z,1.70
2022-11-04T08:31:43.023Z,1.60
2022-11-04T08:34:11.307Z,1.37
2022-11-04T08:36:42.906Z,1.90
2022-11-04T08:39:12.909Z,2.13
2022-11-04T08:41:45.399Z,2.03
2022-11-04T08:44:14.700Z,1.27
2022-11-04T08:46:46.386Z,2.30
2022-11-04T08:49:19.614Z,2.77
2022-11-04T08:51:56.463Z,2.07
2022-11-04T08:54:24.951Z,1.40
2022-11-04T08:56:53.554Z,2.97
2022-11-04T08:59:21.603Z,2.40
2022-11-04T09:01:49.782Z,1.70
2022-11-04T09:04:17.904Z,1.60
2022-11-04T09:06:47.028Z,1.63
2022-11-04T09:09:18.802Z,2.27
2022-11-04T09:11:47.660Z,1.53
2022-11-04T09:14:17.745Z,1.50
2022-11-04T09:16:46.134Z,1.83
2022-11-04T09:19:14.543Z,1.80
2022-11-04T09:21:43.675Z,2.03
2022-11-04T09:24:12.439Z,2.20
2022-11-04T09:26:41.964Z,1.57
2022-11-04T09:29:10.135Z,2.53
2022-11-04T09:31:39.088Z,2.27
2022-11-04T09:34:07.251Z,2.03
2022-11-04T09:36:35.435Z,1.87
2022-11-04T09:39:03.444Z,1.63
2022-11-04T09:42:26.430Z,2.10
2022-11-04T09:45:20.625Z,2.00
2022-11-04T09:47:53.507Z,1.97
2022-11-04T09:50:26.183Z,2.30
2022-11-04T09:53:03.968Z,1.70
2022-11-04T09:55:41.745Z,1.50
2022-11-04T09:58:15.086Z,1.20
2022-11-04T10:00:52.403Z,1.30
2022-11-04T10:03:46.877Z,1.20
2022-11-04T10:06:34.849Z,1.47
2022-11-04T10:09:22.240Z,1.27
2022-11-04T10:12:08.821Z,1.47
2022-11-04T10:15:14.411Z,1.03
2022-11-04T10:18:11.073Z,1.40
2022-11-04T10:20:55.663Z,1.40
2022-11-04T10:23:33.247Z,1.33
2022-11-04T10:26:15.929Z,1.40
2022-11-04T10:28:50.039Z,1.63
2022-11-04T10:31:20.582Z,1.10
2022-11-04T10:33:55.446Z,1.40
2022-11-04T10:36:27.170Z,1.50
2022-11-04T10:38:57.388Z,1.40
2022-11-04T10:41:34.240Z,1.47
2022-11-04T10:44:08.647Z,1.40
2022-11-04T10:46:55.316Z,0.93
2022-11-04T10:50:31.119Z,1.30
2022-11-04T10:53:19.870Z,1.00
2022-11-04T10:55:58.446Z,1.00
2022-11-04T10:58:31.454Z,1.10
2022-11-04T11:01:00.570Z,1.10
2022-11-04T11:03:33.489Z,1.53
2022-11-04T11:06:26.282Z,1.33
2022-11-04T11:08:58.445Z,1.43
2022-11-04T11:11:47.188Z,1.03
2022-11-04T11:14:21.198Z,1.27
2022-11-04T11:16:49.292Z,1.20
2022-11-04T11:19:21.724Z,1.50
2022-11-04T11:21:52.789Z,1.00
2022-11-04T11:24:23.762Z,1.37
2022-11-04T11:26:55.824Z,1.57
2022-11-04T11:29:28.035Z,1.70
2022-11-04T11:31:58.466Z,1.40
2022-11-04T11:34:33.162Z,1.40
2022-11-04T11:37:04.872Z,1.67
2022-11-04T11:39:35.969Z,1.27
2022-11-04T11:42:08.685Z,1.40
2022-11-04T11:44:44.485Z,1.37
2022-11-04T11:47:23.541Z,1.13
2022-11-04T11:50:16.890Z,1.70
2022-11-04T11:52:46.246Z,1.50
2022-11-04T11:55:21.682Z,1.50
2022-11-04T12:01:05.543Z,2.07
2022-11-04T12:09:43.108Z,1.30
2022-11-04T12:12:48.060Z,1.63
2022-11-04T12:15:35.727Z,1.53
2022-11-04T12:18:35.343Z,1.83
2022-11-04T12:21:13.871Z,1.57
2022-11-04T12:23:54.976Z,1.50
2022-11-04T12:26:40.634Z,1.73
2022-11-04T12:29:34.441Z,2.50
2022-11-04T12:32:20.896Z,2.42
2022-11-04T12:35:11.819Z,1.90
2022-11-04T12:37:55.907Z,1.40
2022-11-04T12:40:30.308Z,1.27
2022-11-04T12:43:19.846Z,1.93
2022-11-04T12:46:09.040Z,1.67
2022-11-04T12:49:07.256Z,1.40
2022-11-04T12:51:48.210Z,1.50
2022-11-04T12:54:46.346Z,1.50
2022-11-04T12:57:26.242Z,1.00
2022-11-04T13:00:12.363Z,1.60
2022-11-04T13:02:49.960Z,1.47
2022-11-04T13:05:37.507Z,1.10
2022-11-04T13:08:17.941Z,1.17
2022-11-04T13:10:55.347Z,1.43
2022-11-04T13:13:33.909Z,1.30
2022-11-04T13:16:11.348Z,1.53
2022-11-04T13:18:42.640Z,1.30
2022-11-04T13:21:17.878Z,1.20
2022-11-04T13:23:53.689Z,0.90
2022-11-04T13:26:22.019Z,1.27
2022-11-04T13:29:08.694Z,1.03
2022-11-04T13:31:49.292Z,1.27
2022-11-04T13:34:35.419Z,1.00
2022-11-04T13:37:18.866Z,1.30
2022-11-04T13:39:55.241Z,1.30
2022-11-04T13:43:19.753Z,0.90
2022-11-04T13:45:53.136Z,1.23
2022-11-04T13:48:26.774Z,0.87
2022-11-04T13:51:02.310Z,1.23
2022-11-04T13:53:45.390Z,1.40
2022-11-04T13:56:34.800Z,1.40
2022-11-04T13:59:20.955Z,1.70
2022-11-04T14:02:10.647Z,1.17
2022-11-04T14:04:40.639Z,1.37
2022-11-04T14:07:11.540Z,1.83
2022-11-04T14:10:00.975Z,1.37
2022-11-04T14:12:33.444Z,0.90
2022-11-04T14:15:16.779Z,1.30
2022-11-04T14:18:09.124Z,1.33
2022-11-04T14:21:07.110Z,1.03
2022-11-04T14:23:37.818Z,1.47
2022-11-04T14:26:09.844Z,1.10
2022-11-04T14:28:39.719Z,1.40
2022-11-04T14:31:16.974Z,2.23
2022-11-04T14:33:58.035Z,1.37
2022-11-04T14:36:36.489Z,1.40
2022-11-04T14:39:22.066Z,1.10
2022-11-04T14:42:01.546Z,0.93
2022-11-04T14:44:39.801Z,1.20
2022-11-04T14:47:20.109Z,1.03
2022-11-04T14:49:52.901Z,0.83
2022-11-04T14:52:28.933Z,1.03
2022-11-04T14:55:05.218Z,0.73
2022-11-04T14:57:39.149Z,0.93
2022-11-04T15:00:32.198Z,1.17
2022-11-04T15:03:10.477Z,1.10
2022-11-04T15:05:50.895Z,1.13
2022-11-04T15:08:31.965Z,0.97
2022-11-04T15:11:05.439Z,0.80
2022-11-04T15:13:38.512Z,1.10
2022-11-04T15:16:15.737Z,1.00
2022-11-04T15:18:44.274Z,0.70
2022-11-04T15:21:15.210Z,1.10
2022-11-04T15:23:48.669Z,1.17
2022-11-04T15:26:29.498Z,1.00
2022-11-04T15:29:00.934Z,0.87
2022-11-04T15:31:31.946Z,1.00
2022-11-04T15:34:03.918Z,0.83
2022-11-04T15:36:39.845Z,1.00
2022-11-04T15:39:15.503Z,0.70
2022-11-04T15:42:04.621Z,0.53
2022-11-04T15:44:36.432Z,0.73
2022-11-04T15:47:22.909Z,0.90
2022-11-04T15:49:53.088Z,0.73
2022-11-04T15:52:26.759Z,0.70
2022-11-04T15:54:58.664Z,0.70
2022-11-04T15:57:32.691Z,0.67
2022-11-04T16:00:06.152Z,0.80
2022-11-04T16:02:38.799Z,0.60
2022-11-04T16:05:28.389Z,1.10
2022-11-04T16:08:20.624Z,0.83
2022-11-04T16:10:49.864Z,1.13
2022-11-04T16:13:25.732Z,1.10
2022-11-04T16:16:16.270Z,0.60
2022-11-04T16:18:51.643Z,1.00
2022-11-04T16:21:26.983Z,0.80
2022-11-04T16:24:02.386Z,0.53
2022-11-04T16:26:38.192Z,0.83
2022-11-04T16:29:11.466Z,0.93
2022-11-04T16:31:39.936Z,1.20
2022-11-04T16:34:12.936Z,0.97
2022-11-04T16:36:41.195Z,1.03
2022-11-04T16:39:10.684Z,0.97
2022-11-04T16:41:41.966Z,1.00
2022-11-04T16:44:21.066Z,0.73
2022-11-04T16:46:49.444Z,0.93
2022-11-04T16:49:20.109Z,1.20
2022-11-04T16:51:55.862Z,1.00
2022-11-04T16:54:26.260Z,0.63
2022-11-04T16:56:55.509Z,0.80
2022-11-04T16:59:23.899Z,1.00
2022-11-04T17:01:52.103Z,1.07
2022-11-04T17:04:20.224Z,1.10
2022-11-04T17:06:48.251Z,1.10
2022-11-04T17:09:21.931Z,1.10
2022-11-04T17:11:51.324Z,1.23
2022-11-04T17:14:19.333Z,0.90
2022-11-04T17:16:47.468Z,0.97
2022-11-04T17:19:17.395Z,1.00
2022-11-04T17:21:46.325Z,0.97
2022-11-04T17:24:14.758Z,2.50
2022-11-04T17:26:43.084Z,2.47
2022-11-04T17:29:17.133Z,2.10
2022-11-04T17:31:45.566Z,1.87
2022-11-04T17:34:13.759Z,2.00
2022-11-04T17:36:41.766Z,1.40
2022-11-04T17:39:09.819Z,2.17
2022-11-04T17:41:55.339Z,1.77
2022-11-04T17:44:24.677Z,2.40
2022-11-04T17:46:52.695Z,1.77
2022-11-04T17:49:24.009Z,2.00
2022-11-04T17:51:54.381Z,2.30
2022-11-04T17:54:24.196Z,1.83
2022-11-04T17:56:53.420Z,2.20
2022-11-04T17:59:21.788Z,1.50
2022-11-04T18:01:51.975Z,1.43
2022-11-04T18:04:22.217Z,1.10
2022-11-04T18:06:51.227Z,1.53
2022-11-04T18:09:19.789Z,1.93
2022-11-04T18:12:05.716Z,1.83
2022-11-04T18:14:33.872Z,2.07
2022-11-04T18:17:04.566Z,1.30
2022-11-04T18:19:32.659Z,1.30
2022-11-04T18:22:00.705Z,1.40
2022-11-04T18:24:29.023Z,1.50
2022-11-04T18:26:59.436Z,1.27
2022-11-04T18:29:27.923Z,1.70
2022-11-04T18:31:55.928Z,3.37
2022-11-04T18:34:25.364Z,2.03
2022-11-04T18:36:53.466Z,3.07
2022-11-04T18:39:21.686Z,2.20
2022-11-04T18:41:49.830Z,1.90
2022-11-04T18:44:21.171Z,1.50
2022-11-04T18:46:49.775Z,1.30
2022-11-04T18:49:20.594Z,1.20
2022-11-04T18:51:50.086Z,1.30
2022-11-04T18:54:18.187Z,1.30
2022-11-04T18:56:46.640Z,1.43
2022-11-04T18:59:16.483Z,1.40
2022-11-04T19:01:45.596Z,1.30
2022-11-04T19:04:14.621Z,1.20
2022-11-04T19:06:46.000Z,1.67
2022-11-04T19:09:46.136Z,1.00
2022-11-04T19:12:24.824Z,1.00
2022-11-04T19:14:53.570Z,1.17
2022-11-04T19:17:22.344Z,1.10
2022-11-04T19:19:51.353Z,1.40
2022-11-04T19:22:19.429Z,1.30
2022-11-04T19:24:49.126Z,1.70
2022-11-04T19:27:17.868Z,1.30
2022-11-04T19:29:46.784Z,1.03
2022-11-04T19:32:14.870Z,1.07
2022-11-04T19:34:42.969Z,1.27
2022-11-04T19:37:11.704Z,1.23
2022-11-04T19:39:40.213Z,1.43
2022-11-04T19:42:29.616Z,1.00
2022-11-04T19:44:58.037Z,1.23
2022-11-04T19:47:26.110Z,1.20
2022-11-04T19:49:55.368Z,0.70
2022-11-04T19:52:23.513Z,1.00
2022-11-04T19:54:51.592Z,0.90
2022-11-04T19:57:20.982Z,0.97
2022-11-04T19:59:51.755Z,1.50
2022-11-04T20:02:20.221Z,1.37
2022-11-04T20:04:49.913Z,1.27
2022-11-04T20:07:18.480Z,1.47
2022-11-04T20:09:46.522Z,1.50
2022-11-04T20:12:32.150Z,1.33
2022-11-04T20:15:01.738Z,1.80
2022-11-04T20:17:32.102Z,2.13
2022-11-04T20:20:00.215Z,1.50
2022-11-04T20:22:28.742Z,1.50
2022-11-04T20:24:57.145Z,1.07
2022-11-04T20:27:25.242Z,0.97
2022-11-04T20:29:53.321Z,1.00
2022-11-04T20:32:23.082Z,1.43
2022-11-04T20:34:51.142Z,1.23
2022-11-04T20:37:19.155Z,0.70
2022-11-04T20:39:48.278Z,1.20
2022-11-04T20:42:16.460Z,1.07
2022-11-04T20:44:44.493Z,0.80
2022-11-04T20:47:12.492Z,0.70
2022-11-04T20:49:41.937Z,1.10
2022-11-04T20:52:10.075Z,0.90
2022-11-04T20:54:38.563Z,1.03
2022-11-04T20:57:06.619Z,0.97
2022-11-04T20:59:34.712Z,0.90
2022-11-04T21:02:02.862Z,0.97
2022-11-04T21:04:35.942Z,0.67
2022-11-04T21:07:06.822Z,0.93
2022-11-04T21:09:34.857Z,1.27
2022-11-04T21:12:02.927Z,0.77
2022-11-04T21:14:34.851Z,1.00
2022-11-04T21:17:03.068Z,1.07
2022-11-04T21:19:31.113Z,1.03
2022-11-04T21:21:59.330Z,1.00
2022-11-04T21:24:28.824Z,0.70
2022-11-04T21:26:56.909Z,1.23
2022-11-04T21:29:25.062Z,1.10
2022-11-04T21:31:53.441Z,0.80
2022-11-04T21:34:21.432Z,0.90
2022-11-04T21:36:53.129Z,0.53
2022-11-04T21:39:21.361Z,1.07
2022-11-04T21:41:50.981Z,0.87
2022-11-04T21:44:19.169Z,0.77
2022-11-04T21:46:48.433Z,0.37
2022-11-04T21:49:18.676Z,0.73
2022-11-04T21:51:46.890Z,1.33
2022-11-04T21:54:15.063Z,1.00
2022-11-04T21:56:43.272Z,0.90
2022-11-04T21:59:18.160Z,0.90
2022-11-04T22:01:47.008Z,0.63
2022-11-04T22:04:15.766Z,0.80
2022-11-04T22:06:45.380Z,0.77
2022-11-04T22:09:13.882Z,0.73
2022-11-04T22:11:42.245Z,0.60
2022-11-04T22:14:14.135Z,0.90
2022-11-04T22:16:42.629Z,0.90
2022-11-04T22:19:14.476Z,0.90
2022-11-04T22:21:45.592Z,0.83
2022-11-04T22:24:16.301Z,0.93
2022-11-04T22:26:45.254Z,0.60
2022-11-04T22:29:14.961Z,1.00
2022-11-04T22:31:44.740Z,0.80
2022-11-04T22:34:14.614Z,1.03
2022-11-04T22:36:43.004Z,1.00
2022-11-04T22:39:16.436Z,0.60
2022-11-04T22:41:46.401Z,0.50
2022-11-04T22:44:16.283Z,0.70
2022-11-04T22:46:44.632Z,0.60
2022-11-04T22:49:14.403Z,1.33
2022-11-04T22:51:42.663Z,0.70
2022-11-04T22:54:11.899Z,0.87
2022-11-04T22:56:40.104Z,1.00
2022-11-04T22:59:08.995Z,0.90
2022-11-04T23:01:38.860Z,0.80
2022-11-04T23:04:11.586Z,0.60
2022-11-04T23:06:40.371Z,0.60
2022-11-04T23:09:08.383Z,0.90
2022-11-04T23:11:53.954Z,0.90
2022-11-04T23:14:49.342Z,0.90
2022-11-04T23:17:40.755Z,0.70
2022-11-04T23:20:12.570Z,0.67
2022-11-04T23:22:58.697Z,0.90
2022-11-04T23:25:28.069Z,0.50
2022-11-04T23:28:14.627Z,0.67
2022-11-04T23:30:46.497Z,0.57
2022-11-04T23:33:16.464Z,0.70
2022-11-04T23:36:13.802Z,0.93
2022-11-04T23:38:45.270Z,0.50
2022-11-04T23:41:34.829Z,0.70
2022-11-04T23:44:03.702Z,0.87
2022-11-04T23:46:54.556Z,0.70
2022-11-04T23:49:41.748Z,0.70
2022-11-04T23:52:28.574Z,0.73
2022-11-04T23:55:14.295Z,0.80
2022-11-04T23:58:00.193Z,0.40
